General Aviation Weather

Text Reports

Enter one or more of the following location identifiers separated by a space:

Zip Code, Four-Character ICAO or Three-Character IATA airport codes.

METAR - Aviation Routine Weather Report
KBGD - Borger, Texas
Updated at 7:51 AM GMT on June 03, 2015 (2:51 AM CDT):
METAR KBGD 030751Z AUTO 18013KT 10SM CLR 22/16 A2987 RMK AO2 SLP068 T02220156
TAF - Terminal Area Forecast
KBGD - Borger, Texas
Updated at 7:51 AM GMT on June 03, 2015 (2:51 AM CDT):
No TAF is currently available for this location.
Decoded:
No decoded TAF is available.
PIREP - Pilot Weather Report
KBGD - Borger, Texas
Updated at 7:51 AM GMT on June 03, 2015 (2:51 AM CDT):
No PIREP is currently available for this location.
AIRMET - Airmens Meteorological Information
KBGD - Borger, Texas
Updated at 7:51 AM GMT on June 03, 2015 (2:51 AM CDT):
No AIRMET is currently available for this location.
SIGMET - Significant Meteorological Information
KBGD - Borger, Texas
Updated at 7:51 AM GMT on June 03, 2015 (2:51 AM CDT):
No SIGMET is currently available for this location.
NOTAM - Notice to Airmen
KBGD - Borger, Texas
Updated at 7:51 AM GMT on June 03, 2015 (2:51 AM CDT):
No NOTAM is currently available for this location.
Forecast Area
KBGD - Borger, Texas
Updated at 7:51 AM GMT on June 03, 2015 (2:51 AM CDT):
No NOTAM is currently available for this location.
Aviation Weather Maps